Airfield :
LOGIN :

Register | Disclaimer

   EN    FR    IT 

 










Legend :    VFR   Marginal VFR   IFR   Intensive IFR   Very Intensive IFR
Visi :
Ceiling :
>= 8 km
>= 3000ft
5 to 8 km
1000 to 3000 ft
1500m to 5 km
500 to 1000 ft
800 to 1500m
200 to 500 ft
< 800m
< 200 ft
Symbols :   Thunderstorms  Fog  Heavy snow  Heavy precipitations  Wind > 20 kt
SIGMETs :     Misc.  Thunderstorms  Icing  Turbulence  Mountain Waves  Volcanic Ashes






- Airport Elevation : 46 ft
- IATA code : SNN


EINN - Shannon

CURRENT METAR :
  • 230430Z 15010KT 9999 FEW020 SCT041 BKN120 11/08 Q1015 NOSIG

EXPIRED METARs :
  • 230400Z 13007KT 9999 FEW020 SCT240 10/08 Q1016 NOSIG
  • 230330Z 14009KT 9999 FEW020 SCT046 11/08 Q1016 NOSIG
  • 230300Z 14010KT 9999 FEW020 SCT046 10/09 Q1017 NOSIG
  • 230230Z 13010KT 9999 FEW020 SCT250 10/08 Q1017 NOSIG
  • 230200Z 14011KT 9999 FEW020 10/08 Q1018 NOSIG

TAF TAF EINN
Valid from the 23 at 00:00 until the 24 at 00:00 UTC


222300Z 2300/2324 15010KT 9999 FEW015 BKN030
BECMG 2310/2312 16015G25KT
PROB30
TEMPO 2314/2321 4000 -RA BKN014
TEMPO 2321/2324 4000 -RA BKN012
BECMG 2321/2323 18008KT



MET'MAP, your aeronautical weather chart ! - Copyright ORBIFLY December 2007 - Disclaimer

ORBIFLY MET'MAP TEAM :

Programming & Development : Alexandra Zaïnal
Concept & original design : Baudouin d'Aumeries
Assistance for programming : Marc-Olivier Méhu
Technical & hardware support : Manuel Goepfert

Contact : metmap@orbifly.com




SOURCES & CREDITS :

   NOAA